Time;durP1;ratioP1;P1;durP2;ratioP2;P2;SDS_P1;SDS_P2;PMS_P1;PMS_P2;Temp;Humidity;BMP_temperature;BMP_pressure;BME280_temperature;BME280_humidity;BME280_pressure;Samples;Min_cycle;Max_cycle;Signal;HPM_P1;HPM_P2
2022/09/30 00:01:28;;;;;;;22.57;5.93;;;15.40;90.80;;;;;;5049910;28;20199;-68
2022/09/30 00:03:57;;;;;;;21.90;4.90;;;15.50;90.80;;;;;;5050857;28;20186;-69
2022/09/30 00:06:26;;;;;;;27.57;5.70;;;15.70;90.60;;;;;;5051227;28;20178;-68
2022/09/30 00:09:14;;;;;;;30.10;5.53;;;15.80;90.40;;;;;;5046874;28;20222;-68
2022/09/30 00:11:42;;;;;;;25.27;5.30;;;16.00;90.00;;;;;;5039960;28;20173;-68
2022/09/30 00:14:29;;;;;;;29.30;5.37;;;16.30;89.80;;;;;;5044818;28;20189;-68
2022/09/30 00:16:56;;;;;;;15.30;3.53;;;16.30;88.90;;;;;;5047046;28;20198;-70
2022/09/30 00:19:24;;;;;;;18.50;3.60;;;16.20;86.20;;;;;;5049165;28;20188;-69
2022/09/30 00:21:51;;;;;;;25.03;4.50;;;16.20;85.20;;;;;;5053715;28;20636;-69
2022/09/30 00:24:18;;;;;;;17.97;3.40;;;16.20;85.50;;;;;;5051248;28;20215;-69
2022/09/30 00:26:46;;;;;;;25.47;5.10;;;16.60;85.50;;;;;;5053443;28;20218;-69
2022/09/30 00:29:13;;;;;;;14.83;3.90;;;16.90;85.20;;;;;;5053097;28;20541;-68
2022/09/30 00:31:40;;;;;;;18.07;4.30;;;17.20;82.40;;;;;;5052669;28;20186;-70
2022/09/30 00:34:10;;;;;;;16.40;3.50;;;17.20;80.40;;;;;;5048962;28;20228;-70
2022/09/30 00:36:44;;;;;;;19.77;3.67;;;17.20;79.10;;;;;;5050493;28;20198;-69
2022/09/30 00:39:17;;;;;;;24.40;4.13;;;17.00;80.80;;;;;;5053421;28;20177;-69
2022/09/30 00:41:47;;;;;;;21.17;4.23;;;16.70;83.10;;;;;;5042576;28;20216;-70
2022/09/30 00:44:42;;;;;;;23.53;4.67;;;16.60;84.60;;;;;;5040458;28;20181;-68
2022/09/30 00:47:35;;;;;;;29.17;4.73;;;16.50;85.40;;;;;;5047336;28;20223;-69
2022/09/30 00:50:20;;;;;;;20.90;4.57;;;16.60;85.80;;;;;;5050810;28;20184;-69
2022/09/30 00:53:09;;;;;;;26.17;5.10;;;16.50;85.60;;;;;;5045387;28;20235;-69
2022/09/30 00:55:56;;;;;;;28.63;4.90;;;16.50;85.20;;;;;;5052697;28;20184;-70
2022/09/30 00:58:42;;;;;;;21.23;4.80;;;16.70;85.10;;;;;;5053120;28;20175;-69
2022/09/30 01:01:10;;;;;;;20.97;4.13;;;17.10;85.50;;;;;;5053227;28;20256;-71
2022/09/30 01:04:02;;;;;;;25.13;4.87;;;17.10;84.40;;;;;;5051438;28;20185;-69
2022/09/30 01:06:30;;;;;;;17.90;3.83;;;16.90;83.20;;;;;;5046610;28;20213;-69
2022/09/30 01:08:58;;;;;;;19.37;3.87;;;16.80;82.80;;;;;;5052243;28;20550;-70
2022/09/30 01:11:27;;;;;;;20.63;4.43;;;16.90;83.30;;;;;;5051949;28;20172;-69
2022/09/30 01:13:59;;;;;;;22.93;4.80;;;17.00;83.60;;;;;;5052481;28;20179;-71
2022/09/30 01:16:55;;;;;;;19.50;4.67;;;17.30;82.90;;;;;;5040204;28;20270;-71
2022/09/30 01:20:02;;;;;;;13.00;3.27;;;17.80;82.30;;;;;;5039912;28;20265;-71
2022/09/30 01:23:01;;;;;;;17.27;3.50;;;18.50;77.80;;;;;;5036049;28;20190;-69
2022/09/30 01:25:53;;;;;;;22.17;4.13;;;18.80;76.90;;;;;;5038293;28;20204;-69
2022/09/30 01:28:34;;;;;;;14.30;3.50;;;18.80;76.00;;;;;;5045787;28;20268;-70
2022/09/30 01:31:36;;;;;;;18.57;4.10;;;18.90;75.30;;;;;;5052674;28;20173;-70
2022/09/30 01:34:18;;;;;;;29.90;4.63;;;18.70;76.20;;;;;;5047149;28;20183;-69
2022/09/30 01:36:58;;;;;;;22.40;4.23;;;18.30;76.90;;;;;;5052206;28;20608;-69
2022/09/30 01:39:37;;;;;;;22.40;4.20;;;18.40;75.60;;;;;;5052134;28;20237;-68
2022/09/30 01:42:41;;;;;;;23.43;4.13;;;18.80;75.20;;;;;;5042854;28;20246;-69
2022/09/30 01:45:29;;;;;;;14.80;3.47;;;18.50;72.20;;;;;;5045713;28;20234;-70
2022/09/30 01:47:56;;;;;;;23.47;4.03;;;18.30;73.70;;;;;;5044129;28;20215;-69
2022/09/30 01:50:39;;;;;;;17.40;3.87;;;18.60;72.80;;;;;;5054412;28;20181;-68
2022/09/30 01:53:15;;;;;;;18.80;3.83;;;18.80;71.20;;;;;;5057572;28;20179;-70
2022/09/30 01:56:05;;;;;;;13.77;2.70;;;19.20;70.20;;;;;;5053513;28;20179;-69
2022/09/30 01:58:56;;;;;;;18.27;3.27;;;19.50;69.10;;;;;;5042528;28;20202;-70
2022/09/30 02:01:38;;;;;;;19.07;3.53;;;19.00;68.10;;;;;;5044559;28;20180;-68
2022/09/30 02:04:12;;;;;;;19.07;3.67;;;18.80;69.40;;;;;;5050424;28;20179;-70
2022/09/30 02:06:46;;;;;;;17.40;3.50;;;18.80;69.70;;;;;;5046239;28;20191;-71
2022/09/30 02:09:21;;;;;;;17.93;3.73;;;18.60;72.30;;;;;;5048187;28;20266;-71
2022/09/30 02:11:48;;;;;;;17.70;4.10;;;17.80;78.20;;;;;;5043926;28;20731;-70
2022/09/30 02:14:39;;;;;;;20.07;3.63;;;17.30;81.50;;;;;;5044252;28;20192;-68
2022/09/30 02:17:25;;;;;;;24.53;3.80;;;16.70;84.30;;;;;;5044293;28;20192;-68
2022/09/30 02:20:06;;;;;;;17.70;4.40;;;16.20;85.70;;;;;;5049708;28;20640;-68
2022/09/30 02:22:45;;;;;;;21.63;4.07;;;16.00;86.10;;;;;;5047805;28;20265;-69
2022/09/30 02:25:26;;;;;;;20.60;3.77;;;15.80;86.70;;;;;;5049861;28;20324;-70
2022/09/30 02:27:59;;;;;;;26.23;4.60;;;16.10;87.40;;;;;;5051289;28;20659;-69
2022/09/30 02:30:27;;;;;;;22.00;4.50;;;16.50;87.60;;;;;;5041678;28;20183;-71
2022/09/30 02:33:01;;;;;;;15.40;3.03;;;17.10;85.90;;;;;;5053250;28;20180;-68
2022/09/30 02:35:57;;;;;;;25.20;4.63;;;17.80;82.80;;;;;;5047350;28;20183;-68
2022/09/30 02:38:36;;;;;;;20.13;4.00;;;18.30;80.80;;;;;;5043935;28;20234;-69
2022/09/30 02:41:15;;;;;;;14.90;3.73;;;17.70;81.60;;;;;;5046971;28;20277;-68
2022/09/30 02:43:42;;;;;;;16.93;3.43;;;17.20;83.50;;;;;;5051613;28;20615;-68
2022/09/30 02:46:42;;;;;;;20.20;3.80;;;16.90;84.00;;;;;;5053575;28;20649;-67
2022/09/30 02:49:33;;;;;;;23.07;3.87;;;16.80;85.30;;;;;;5048468;28;20286;-69
2022/09/30 02:52:12;;;;;;;14.73;3.37;;;16.60;84.20;;;;;;5046065;28;20625;-68
2022/09/30 02:55:06;;;;;;;16.60;3.20;;;16.60;83.00;;;;;;5039957;28;20698;-68
2022/09/30 02:57:40;;;;;;;13.97;4.37;;;16.50;83.60;;;;;;5047090;28;20257;-68
2022/09/30 03:00:09;;;;;;;15.30;3.53;;;16.20;83.40;;;;;;5055256;28;20610;-67
2022/09/30 03:02:36;;;;;;;16.30;3.43;;;16.30;83.10;;;;;;5054792;28;20195;-69
2022/09/30 03:05:04;;;;;;;15.73;2.87;;;16.60;82.90;;;;;;5054021;28;20185;-68
2022/09/30 03:07:31;;;;;;;18.17;3.80;;;16.90;81.60;;;;;;5054810;28;20302;-68
2022/09/30 03:09:59;;;;;;;16.17;3.37;;;16.80;81.60;;;;;;5039893;28;20307;-68
2022/09/30 03:12:59;;;;;;;15.00;3.30;;;16.80;82.20;;;;;;5049048;28;20205;-68
2022/09/30 03:15:44;;;;;;;15.50;3.63;;;16.70;83.60;;;;;;5035188;28;20755;-69
2022/09/30 03:18:32;;;;;;;15.20;3.80;;;16.50;84.90;;;;;;5041151;28;20177;-70
2022/09/30 03:21:23;;;;;;;18.47;3.70;;;16.30;85.90;;;;;;5055004;28;20182;-70
2022/09/30 03:24:31;;;;;;;23.80;4.23;;;16.30;85.90;;;;;;5045559;28;20178;-70
2022/09/30 03:27:21;;;;;;;22.50;4.83;;;16.30;86.50;;;;;;5034284;28;20293;-70
2022/09/30 03:30:00;;;;;;;19.27;4.30;;;16.30;86.40;;;;;;5054811;28;20185;-69
2022/09/30 03:32:46;;;;;;;21.23;4.77;;;16.30;86.40;;;;;;5052799;28;20188;-67
2022/09/30 03:35:30;;;;;;;24.00;4.30;;;16.30;86.40;;;;;;5045306;28;20193;-66
2022/09/30 03:38:15;;;;;;;18.53;3.87;;;16.50;85.80;;;;;;5054500;28;20273;-68
2022/09/30 03:41:18;;;;;;;18.73;3.27;;;17.10;84.40;;;;;;5054501;28;20590;-69
2022/09/30 03:43:55;;;;;;;20.20;3.83;;;18.40;80.90;;;;;;5044889;28;20618;-67
2022/09/30 03:46:54;;;;;;;14.17;2.77;;;19.00;78.00;;;;;;5054065;28;20221;-68
2022/09/30 03:49:27;;;;;;;11.00;2.67;;;18.70;76.90;;;;;;5053008;28;20547;-68
2022/09/30 03:51:56;;;;;;;13.80;2.77;;;18.30;77.90;;;;;;5054287;28;20191;-68
2022/09/30 03:54:24;;;;;;;6.90;2.50;;;18.60;74.80;;;;;;5050308;28;20180;-69
2022/09/30 03:56:51;;;;;;;12.67;2.80;;;19.20;72.60;;;;;;5045882;28;20593;-69
2022/09/30 03:59:27;;;;;;;11.57;2.80;;;19.90;71.00;;;;;;5036579;28;20173;-68
2022/09/30 04:01:58;;;;;;;11.57;2.60;;;20.40;67.90;;;;;;5047554;28;20187;-67
2022/09/30 04:04:25;;;;;;;13.27;2.67;;;20.30;69.00;;;;;;5042196;28;20277;-67
2022/09/30 04:06:52;;;;;;;13.23;2.43;;;19.30;71.20;;;;;;5053378;28;20578;-70
2022/09/30 04:09:20;;;;;;;15.50;2.53;;;18.40;73.50;;;;;;5053739;28;20190;-69
2022/09/30 04:11:47;;;;;;;12.10;2.63;;;18.70;75.20;;;;;;5052863;28;20176;-69
2022/09/30 04:14:14;;;;;;;10.57;2.17;;;19.70;71.90;;;;;;5053507;28;20186;-70
2022/09/30 04:16:42;;;;;;;10.03;2.30;;;20.30;69.50;;;;;;5053580;28;20184;-66
2022/09/30 04:19:09;;;;;;;10.17;1.90;;;19.60;68.80;;;;;;5054405;28;20577;-69
2022/09/30 04:21:36;;;;;;;10.40;2.07;;;19.30;71.90;;;;;;5053846;28;20187;-71
2022/09/30 04:24:04;;;;;;;7.70;1.30;;;19.70;68.60;;;;;;5053462;28;20262;-69
2022/09/30 04:26:31;;;;;;;5.17;1.50;;;20.20;66.80;;;;;;5053564;28;20230;-70
2022/09/30 04:28:58;;;;;;;7.03;1.63;;;20.80;65.60;;;;;;5053348;28;20180;-69
2022/09/30 04:31:26;;;;;;;5.43;1.30;;;21.00;61.90;;;;;;5053352;28;20241;-68
2022/09/30 04:33:55;;;;;;;4.60;1.43;;;21.10;59.70;;;;;;5053580;28;20180;-70
2022/09/30 04:36:23;;;;;;;6.70;1.43;;;21.00;61.10;;;;;;5053934;28;20321;-70
2022/09/30 04:38:52;;;;;;;9.07;1.90;;;21.30;60.40;;;;;;5050921;28;20564;-70
2022/09/30 04:41:20;;;;;;;11.57;2.03;;;21.10;61.90;;;;;;5048164;28;20192;-69
2022/09/30 04:43:48;;;;;;;8.57;1.97;;;21.50;61.50;;;;;;5031740;28;20201;-68
2022/09/30 04:46:20;;;;;;;5.60;1.60;;;21.60;61.60;;;;;;5031990;28;20631;-68
2022/09/30 04:48:48;;;;;;;9.30;2.40;;;21.00;63.00;;;;;;5031874;28;20184;-68
2022/09/30 04:51:20;;;;;;;8.43;2.27;;;21.20;63.10;;;;;;5031797;28;20600;-68
2022/09/30 04:53:49;;;;;;;5.33;1.73;;;21.30;62.00;;;;;;5033405;28;20181;-68
2022/09/30 04:56:17;;;;;;;11.30;1.83;;;21.00;62.70;;;;;;5033023;28;20180;-67
2022/09/30 04:58:44;;;;;;;7.63;1.87;;;21.00;61.00;;;;;;5032693;28;20180;-68
2022/09/30 05:01:15;;;;;;;7.03;2.23;;;20.40;63.40;;;;;;5033029;28;20177;-70
2022/09/30 05:03:43;;;;;;;10.37;2.47;;;19.40;68.40;;;;;;5032376;28;20274;-68
2022/09/30 05:06:11;;;;;;;8.63;2.23;;;19.20;69.50;;;;;;5028839;28;20598;-70
2022/09/30 05:08:38;;;;;;;11.97;2.60;;;19.20;69.90;;;;;;5028091;28;20252;-69
2022/09/30 05:11:11;;;;;;;9.93;1.77;;;18.70;72.70;;;;;;5032648;28;20184;-70
2022/09/30 05:13:40;;;;;;;9.00;2.00;;;18.40;72.90;;;;;;5020899;28;20660;-70
2022/09/30 05:16:09;;;;;;;8.40;1.80;;;18.70;71.10;;;;;;5032833;28;20230;-70
2022/09/30 05:18:37;;;;;;;9.33;1.60;;;19.30;69.10;;;;;;5031439;28;20180;-69
2022/09/30 05:21:04;;;;;;;8.70;1.70;;;19.50;66.90;;;;;;5032287;28;20185;-69
2022/09/30 05:23:32;;;;;;;10.40;1.70;;;20.30;64.30;;;;;;5031370;28;20238;-70
2022/09/30 05:26:02;;;;;;;9.77;2.00;;;20.90;61.90;;;;;;5026629;28;20192;-72
2022/09/30 05:28:32;;;;;;;10.30;1.30;;;21.50;61.60;;;;;;5032669;28;20212;-71
2022/09/30 05:31:03;;;;;;;6.97;2.03;;;22.00;58.00;;;;;;5032086;28;20180;-70
2022/09/30 05:33:31;;;;;;;9.63;2.00;;;21.60;59.50;;;;;;5031969;28;20283;-70
2022/09/30 05:36:04;;;;;;;9.17;1.90;;;21.50;61.10;;;;;;5029993;28;20235;-70
2022/09/30 05:38:32;;;;;;;10.60;1.80;;;21.40;61.00;;;;;;5030098;28;20195;-69
2022/09/30 05:41:06;;;;;;;9.70;2.20;;;21.10;61.40;;;;;;5026727;28;20189;-68
2022/09/30 05:43:34;;;;;;;7.80;2.53;;;20.60;63.40;;;;;;5051028;28;20232;-71
2022/09/30 05:46:02;;;;;;;8.57;1.80;;;20.00;67.30;;;;;;5052217;28;20184;-71
2022/09/30 05:48:29;;;;;;;8.60;2.20;;;19.50;69.30;;;;;;5051211;28;20220;-69
2022/09/30 05:50:59;;;;;;;5.17;1.90;;;18.90;72.80;;;;;;5051392;28;20191;-68
2022/09/30 05:53:28;;;;;;;9.47;1.70;;;18.40;74.30;;;;;;5041912;28;20180;-68
2022/09/30 05:55:55;;;;;;;12.83;2.47;;;18.20;74.70;;;;;;5051366;28;20194;-67
2022/09/30 05:58:23;;;;;;;10.03;2.00;;;18.10;74.10;;;;;;5046035;28;20176;-68
2022/09/30 06:00:51;;;;;;;9.57;1.77;;;18.10;74.00;;;;;;5039455;28;20548;-68
2022/09/30 06:03:19;;;;;;;9.47;2.13;;;18.10;74.60;;;;;;5046803;28;20245;-68
2022/09/30 06:05:46;;;;;;;8.40;2.60;;;17.90;76.80;;;;;;5046198;28;20187;-67
2022/09/30 06:08:15;;;;;;;11.00;3.03;;;17.90;77.80;;;;;;5051874;28;20314;-70
2022/09/30 06:10:43;;;;;;;9.73;2.20;;;17.90;77.20;;;;;;5051442;28;20578;-69
2022/09/30 06:13:11;;;;;;;14.10;3.60;;;17.60;77.00;;;;;;5051132;28;20187;-68
2022/09/30 06:15:40;;;;;;;13.43;2.93;;;17.50;78.70;;;;;;5052995;28;20184;-68
2022/09/30 06:18:08;;;;;;;16.03;3.20;;;17.50;77.80;;;;;;5053620;28;20221;-69
2022/09/30 06:20:36;;;;;;;14.20;3.50;;;17.30;79.70;;;;;;5049546;28;20369;-68
2022/09/30 06:23:04;;;;;;;16.23;3.40;;;17.30;79.80;;;;;;5055649;28;20716;-70
2022/09/30 06:25:32;;;;;;;12.50;3.17;;;17.30;79.20;;;;;;5055474;28;20187;-68
2022/09/30 06:28:00;;;;;;;10.27;2.70;;;17.00;79.70;;;;;;5055730;28;20223;-68
2022/09/30 06:30:27;;;;;;;10.70;2.73;;;16.80;81.30;;;;;;5055343;28;20229;-70
2022/09/30 06:32:58;;;;;;;19.30;3.53;;;16.60;83.20;;;;;;5055246;28;20314;-69
2022/09/30 06:35:26;;;;;;;16.77;3.37;;;16.50;84.50;;;;;;5054182;28;20247;-69
2022/09/30 06:37:54;;;;;;;14.77;2.97;;;16.50;83.90;;;;;;5051046;28;20276;-69
2022/09/30 06:40:21;;;;;;;7.43;2.10;;;16.50;84.60;;;;;;5039338;28;20553;-68
2022/09/30 06:42:49;;;;;;;8.67;2.60;;;16.10;85.20;;;;;;5037697;28;20619;-70
2022/09/30 06:45:22;;;;;;;10.17;2.17;;;15.80;86.10;;;;;;5054050;28;20180;-71
2022/09/30 06:47:50;;;;;;;10.67;2.27;;;15.80;86.70;;;;;;5054797;28;20253;-70
2022/09/30 06:50:20;;;;;;;11.63;2.37;;;15.80;86.90;;;;;;5050523;28;20180;-70
2022/09/30 06:52:50;;;;;;;9.00;2.77;;;15.80;86.90;;;;;;5052737;28;20260;-68
2022/09/30 06:55:23;;;;;;;9.47;2.53;;;15.90;87.20;;;;;;5053346;28;20267;-68
2022/09/30 06:57:50;;;;;;;10.03;2.23;;;15.80;87.60;;;;;;5053782;28;20180;-69
2022/09/30 07:00:17;;;;;;;10.90;2.90;;;15.80;87.60;;;;;;5046760;28;20191;-68
2022/09/30 07:02:47;;;;;;;13.23;2.87;;;15.90;87.90;;;;;;5050252;28;20212;-69
2022/09/30 07:05:15;;;;;;;13.63;3.17;;;15.90;87.30;;;;;;5053978;28;20178;-68
2022/09/30 07:07:43;;;;;;;25.20;3.80;;;15.80;87.70;;;;;;5054397;28;20672;-69
2022/09/30 07:10:11;;;;;;;18.40;3.20;;;15.90;88.30;;;;;;5051121;28;20658;-70
2022/09/30 07:12:41;;;;;;;15.90;3.30;;;15.80;88.70;;;;;;5042838;28;20626;-71
2022/09/30 07:15:08;;;;;;;19.17;2.87;;;15.80;88.90;;;;;;5053887;28;20209;-69
2022/09/30 07:17:36;;;;;;;16.80;2.93;;;15.70;88.90;;;;;;5049870;28;20196;-70
2022/09/30 07:20:03;;;;;;;16.17;3.87;;;15.80;89.30;;;;;;5049269;28;20192;-70
2022/09/30 07:22:33;;;;;;;15.00;3.70;;;15.90;89.60;;;;;;5047611;28;20189;-68
2022/09/30 07:25:02;;;;;;;13.13;3.23;;;15.90;89.50;;;;;;5044814;28;20190;-70
2022/09/30 07:27:32;;;;;;;15.77;3.63;;;15.90;89.20;;;;;;5052783;28;20221;-69
2022/09/30 07:30:01;;;;;;;20.50;4.13;;;15.80;89.20;;;;;;5051769;28;20180;-70
2022/09/30 07:32:28;;;;;;;17.47;3.80;;;15.60;88.70;;;;;;5050460;28;20196;-69
2022/09/30 07:34:56;;;;;;;19.53;3.97;;;15.40;88.40;;;;;;5048909;28;20238;-70
2022/09/30 07:37:25;;;;;;;16.87;5.40;;;15.40;88.80;;;;;;5043285;28;20181;-69
2022/09/30 07:39:52;;;;;;;24.03;6.03;;;15.30;88.60;;;;;;5050498;28;20188;-69
2022/09/30 07:42:20;;;;;;;30.43;8.27;;;15.30;88.50;;;;;;5046847;28;20281;-69
2022/09/30 07:44:50;;;;;;;25.03;6.03;;;15.20;88.40;;;;;;5047409;28;20215;-68
2022/09/30 07:47:19;;;;;;;24.60;6.90;;;15.20;88.30;;;;;;5051896;28;20219;-68
2022/09/30 07:49:47;;;;;;;36.90;7.03;;;15.20;88.50;;;;;;5052202;28;20256;-69
2022/09/30 07:52:14;;;;;;;28.50;7.20;;;15.20;88.50;;;;;;5046038;28;20185;-71
2022/09/30 07:54:42;;;;;;;29.00;7.20;;;15.20;88.80;;;;;;5037893;28;20184;-67
2022/09/30 07:57:10;;;;;;;32.23;7.40;;;15.20;88.60;;;;;;5051370;28;20728;-68
2022/09/30 07:59:39;;;;;;;26.30;6.20;;;15.20;88.70;;;;;;5050495;28;20199;-74
2022/09/30 08:02:12;;;;;;;30.93;6.27;;;15.20;88.60;;;;;;5042897;28;20529;-69
2022/09/30 08:04:39;;;;;;;43.77;7.43;;;15.30;88.40;;;;;;5042595;28;20540;-68
2022/09/30 08:07:06;;;;;;;32.07;6.30;;;15.30;88.20;;;;;;5048075;28;20210;-68
2022/09/30 08:09:34;;;;;;;38.03;6.90;;;15.30;88.10;;;;;;5046036;28;20180;-68
2022/09/30 08:12:03;;;;;;;30.17;6.43;;;15.30;88.00;;;;;;5044809;28;20249;-68
2022/09/30 08:14:31;;;;;;;25.63;6.37;;;15.30;87.80;;;;;;5043373;28;20181;-68
2022/09/30 08:16:59;;;;;;;22.30;5.40;;;15.30;87.60;;;;;;5037859;28;20285;-68
2022/09/30 08:19:28;;;;;;;40.30;6.83;;;15.40;86.60;;;;;;5052169;28;20270;-68
2022/09/30 08:21:56;;;;;;;27.90;6.10;;;15.40;86.80;;;;;;5050888;28;20266;-67
2022/09/30 08:24:24;;;;;;;36.03;6.90;;;15.40;87.00;;;;;;5045169;28;20188;-68
2022/09/30 08:26:52;;;;;;;33.20;6.03;;;15.50;86.20;;;;;;5038612;28;20213;-69
2022/09/30 08:29:20;;;;;;;47.90;6.93;;;15.50;86.10;;;;;;5050249;28;20548;-67
2022/09/30 08:31:48;;;;;;;28.10;5.50;;;15.50;85.60;;;;;;5052626;28;20176;-69
2022/09/30 08:34:16;;;;;;;28.57;5.93;;;15.50;85.30;;;;;;5066829;28;20188;-71
2022/09/30 08:36:45;;;;;;;28.97;5.37;;;15.50;84.80;;;;;;5053193;28;20547;-74
2022/09/30 08:39:12;;;;;;;30.43;5.80;;;15.50;84.40;;;;;;5051860;28;20186;-74
2022/09/30 08:41:59;;;;;;;29.20;5.80;;;15.50;84.40;;;;;;5041405;28;20227;-69
2022/09/30 08:44:46;;;;;;;29.30;5.47;;;15.50;84.20;;;;;;5050154;28;20214;-70
2022/09/30 08:48:08;;;;;;;37.80;6.53;;;15.50;84.40;;;;;;5048937;28;20743;-68
2022/09/30 08:51:00;;;;;;;24.67;4.87;;;15.50;83.80;;;;;;5028617;28;20326;-70
2022/09/30 08:53:37;;;;;;;30.37;6.40;;;15.40;83.90;;;;;;5028379;28;20748;-72
2022/09/30 08:56:06;;;;;;;24.90;5.33;;;15.50;83.40;;;;;;5043526;28;20191;-67
2022/09/30 08:58:38;;;;;;;31.37;6.13;;;15.60;81.50;;;;;;5052583;28;20262;-65
2022/09/30 09:01:33;;;;;;;28.03;6.13;;;15.60;80.70;;;;;;5051386;28;20177;-69
2022/09/30 09:04:02;;;;;;;34.50;5.70;;;15.70;80.60;;;;;;5047995;28;20188;-68
2022/09/30 09:06:53;;;;;;;26.77;5.20;;;15.70;81.60;;;;;;5051511;28;20188;-69
2022/09/30 09:09:41;;;;;;;29.33;5.97;;;15.70;81.70;;;;;;5045538;28;20283;-66
2022/09/30 09:12:23;;;;;;;31.87;5.90;;;15.70;80.70;;;;;;5051168;28;20641;-66
2022/09/30 09:15:15;;;;;;;28.40;5.47;;;15.70;80.80;;;;;;5038748;28;20172;-65
2022/09/30 09:18:14;;;;;;;21.30;5.27;;;15.80;80.60;;;;;;5052511;28;20526;-69
2022/09/30 09:20:54;;;;;;;35.43;6.00;;;15.70;80.20;;;;;;5038565;28;20643;-70
2022/09/30 09:23:22;;;;;;;34.37;5.93;;;15.80;80.20;;;;;;5038126;28;20604;-67
2022/09/30 09:25:54;;;;;;;33.37;5.27;;;15.80;79.40;;;;;;5050866;28;20195;-67
2022/09/30 09:28:40;;;;;;;31.83;6.23;;;15.70;80.10;;;;;;5051145;28;20207;-71
2022/09/30 09:31:15;;;;;;;29.07;6.10;;;15.70;79.80;;;;;;5050165;28;20184;-67
2022/09/30 09:33:43;;;;;;;29.13;5.27;;;15.60;80.00;;;;;;5052564;28;20167;-69
2022/09/30 09:36:29;;;;;;;35.67;6.43;;;15.50;80.30;;;;;;5046719;28;20190;-69
2022/09/30 09:39:42;;;;;;;29.47;6.80;;;15.50;80.90;;;;;;5043345;28;20184;-67
2022/09/30 09:42:35;;;;;;;27.07;5.23;;;15.50;80.80;;;;;;5043140;28;20222;-67
2022/09/30 09:45:10;;;;;;;33.37;5.73;;;15.50;80.80;;;;;;5051230;28;20187;-68
2022/09/30 09:47:38;;;;;;;33.57;5.63;;;15.40;80.60;;;;;;5050044;28;20257;-67
2022/09/30 09:50:17;;;;;;;30.67;5.93;;;15.40;79.80;;;;;;5054173;28;20190;-68
2022/09/30 09:53:23;;;;;;;36.43;5.83;;;15.50;78.20;;;;;;5042384;28;20176;-64
2022/09/30 09:55:58;;;;;;;21.30;4.40;;;15.60;78.40;;;;;;5057775;28;20175;-68
2022/09/30 09:58:26;;;;;;;28.87;5.43;;;15.60;76.90;;;;;;5056115;28;20195;-67
2022/09/30 10:03:27;;;;;;;26.10;5.07;;;15.60;77.20;;;;;;5050117;28;20181;-69
2022/09/30 10:06:11;;;;;;;27.47;5.27;;;15.50;77.20;;;;;;5048637;28;20183;-68
2022/09/30 10:08:52;;;;;;;30.80;5.23;;;15.50;77.50;;;;;;5057187;28;20293;-69
2022/09/30 10:11:26;;;;;;;22.97;4.67;;;15.40;77.50;;;;;;5057897;28;20657;-67
2022/09/30 10:13:59;;;;;;;26.37;5.40;;;15.40;76.80;;;;;;5043349;28;20279;-69
2022/09/30 10:16:36;;;;;;;25.00;4.93;;;15.50;76.50;;;;;;5055085;28;20188;-69
2022/09/30 10:19:17;;;;;;;21.77;5.20;;;15.40;76.20;;;;;;5049831;28;20180;-67
2022/09/30 10:21:45;;;;;;;19.00;4.57;;;15.40;76.30;;;;;;5058382;28;20186;-69
2022/09/30 10:24:39;;;;;;;20.60;6.00;;;15.50;76.40;;;;;;5058050;28;20584;-68
2022/09/30 10:27:30;;;;;;;24.50;6.57;;;15.50;76.60;;;;;;5056096;28;20521;-68
2022/09/30 10:29:57;;;;;;;26.40;6.17;;;15.50;76.30;;;;;;5047908;28;20643;-68
2022/09/30 10:32:28;;;;;;;22.97;5.93;;;15.60;75.60;;;;;;5051184;28;20237;-67
2022/09/30 10:35:03;;;;;;;19.40;4.90;;;15.60;75.20;;;;;;5058733;28;20171;-69
2022/09/30 10:37:30;;;;;;;29.07;5.53;;;15.60;75.90;;;;;;5056832;28;20182;-69
2022/09/30 10:40:00;;;;;;;30.57;5.13;;;15.50;76.10;;;;;;5047269;28;20204;-67
2022/09/30 10:42:31;;;;;;;29.83;5.23;;;15.40;76.80;;;;;;5051286;28;20215;-68
2022/09/30 10:45:08;;;;;;;24.93;5.57;;;15.40;76.80;;;;;;5048221;28;20177;-68
2022/09/30 10:47:43;;;;;;;23.17;5.00;;;15.30;75.60;;;;;;5054321;28;20204;-66
2022/09/30 10:50:19;;;;;;;20.23;4.27;;;15.30;75.50;;;;;;5048968;28;20540;-67
2022/09/30 10:53:04;;;;;;;24.50;4.90;;;15.40;75.20;;;;;;5057129;28;20194;-67
2022/09/30 10:55:45;;;;;;;24.90;4.90;;;15.50;74.40;;;;;;5044904;28;20185;-66
2022/09/30 10:58:30;;;;;;;26.90;4.83;;;15.60;73.90;;;;;;5044995;28;20240;-66
2022/09/30 11:01:06;;;;;;;28.17;4.67;;;15.60;74.10;;;;;;5048125;28;20180;-68
2022/09/30 11:03:52;;;;;;;22.10;4.80;;;15.70;74.80;;;;;;5046615;28;20187;-67
2022/09/30 11:06:21;;;;;;;29.93;5.30;;;15.70;75.00;;;;;;5053519;28;21929;-68
2022/09/30 11:09:14;;;;;;;25.50;4.80;;;15.70;75.10;;;;;;5053634;28;20252;-68
2022/09/30 11:11:56;;;;;;;27.40;5.27;;;15.70;74.20;;;;;;5054465;28;20210;-68
2022/09/30 11:15:10;;;;;;;23.63;4.87;;;15.70;74.00;;;;;;5054955;28;20184;-68
2022/09/30 11:18:00;;;;;;;23.77;4.93;;;15.80;74.20;;;;;;5049896;28;20215;-67
2022/09/30 11:20:30;;;;;;;30.30;5.33;;;15.70;75.00;;;;;;5052893;28;20263;-68
2022/09/30 11:23:34;;;;;;;27.30;5.30;;;15.70;75.10;;;;;;5044177;28;20177;-69
2022/09/30 11:26:11;;;;;;;26.30;5.73;;;15.70;75.40;;;;;;5044837;28;20266;-67
2022/09/30 11:28:51;;;;;;;24.43;5.30;;;15.70;75.20;;;;;;5053459;28;20212;-69
2022/09/30 11:31:21;;;;;;;20.40;4.43;;;15.70;75.00;;;;;;5046182;28;20181;-66
2022/09/30 11:34:05;;;;;;;81.33;38.80;;;15.70;72.40;;;;;;5042408;28;20187;-68
2022/09/30 11:36:47;;;;;;;25.47;5.60;;;15.70;72.90;;;;;;5054314;28;20229;-68
2022/09/30 11:39:29;;;;;;;21.93;4.50;;;15.70;73.20;;;;;;5044493;28;20640;-68
2022/09/30 11:42:06;;;;;;;33.03;5.60;;;15.70;72.90;;;;;;5042599;28;20294;-67
2022/09/30 11:44:36;;;;;;;26.70;5.57;;;15.70;73.30;;;;;;5041523;28;20538;-68
2022/09/30 11:47:09;;;;;;;26.27;4.67;;;15.60;73.60;;;;;;5049206;28;20205;-69
2022/09/30 11:49:57;;;;;;;21.27;4.97;;;15.50;73.90;;;;;;5039650;28;21225;-68
2022/09/30 11:52:28;;;;;;;23.33;4.57;;;15.50;74.20;;;;;;5052666;28;20191;-69
2022/09/30 11:55:05;;;;;;;24.83;5.03;;;15.50;74.60;;;;;;5053505;28;20179;-68
2022/09/30 11:57:58;;;;;;;27.83;4.80;;;15.50;75.30;;;;;;5041304;28;20184;-69
2022/09/30 12:00:26;;;;;;;23.60;4.60;;;15.30;75.00;;;;;;5054245;28;20180;-68
2022/09/30 12:03:00;;;;;;;27.23;5.20;;;15.30;74.70;;;;;;5041551;28;20559;-67
2022/09/30 12:05:39;;;;;;;22.23;4.43;;;15.20;73.80;;;;;;5053138;28;20253;-67
2022/09/30 12:08:11;;;;;;;22.93;4.40;;;15.30;72.90;;;;;;5053306;28;20223;-69
2022/09/30 12:10:47;;;;;;;24.07;4.27;;;15.20;72.80;;;;;;5053695;28;20180;-69
2022/09/30 12:13:21;;;;;;;28.40;5.00;;;15.30;72.80;;;;;;5049138;28;20184;-67
2022/09/30 12:15:50;;;;;;;22.43;4.67;;;15.20;72.80;;;;;;5052467;28;20244;-68
2022/09/30 12:18:22;;;;;;;21.10;4.93;;;15.20;73.60;;;;;;5053412;28;20666;-66
2022/09/30 12:20:53;;;;;;;21.33;4.57;;;15.20;73.40;;;;;;5041529;28;20184;-66
2022/09/30 12:23:31;;;;;;;23.10;4.17;;;15.20;73.50;;;;;;5052873;28;20271;-67
2022/09/30 12:26:00;;;;;;;21.97;5.20;;;15.10;73.80;;;;;;5053483;28;20263;-67
2022/09/30 12:31:55;;;;;;;20.70;4.13;;;15.00;74.30;;;;;;5048893;28;20195;-66
2022/09/30 12:34:44;;;;;;;28.13;5.80;;;15.10;74.20;;;;;;5052301;28;20180;-66
2022/09/30 12:37:48;;;;;;;23.47;4.90;;;15.00;74.10;;;;;;5050341;28;20634;-68
2022/09/30 12:40:23;;;;;;;29.53;5.20;;;15.00;74.40;;;;;;5053027;28;20314;-67
2022/09/30 12:43:00;;;;;;;29.77;4.87;;;15.00;75.10;;;;;;5044146;28;20219;-67
2022/09/30 12:45:45;;;;;;;29.87;5.03;;;15.00;75.30;;;;;;5039819;28;20540;-67
2022/09/30 12:48:16;;;;;;;28.90;5.53;;;15.00;75.30;;;;;;5049727;28;20215;-67
2022/09/30 12:50:56;;;;;;;28.50;4.63;;;15.00;75.60;;;;;;5051444;28;20168;-67
2022/09/30 12:53:29;;;;;;;27.03;5.00;;;15.00;76.10;;;;;;5052058;28;20218;-67
2022/09/30 12:56:25;;;;;;;24.77;4.80;;;15.00;76.30;;;;;;5047254;28;20192;-67
2022/09/30 12:58:53;;;;;;;19.97;4.70;;;15.00;76.60;;;;;;5047939;28;20239;-67
2022/09/30 13:01:31;;;;;;;21.17;4.70;;;15.00;75.50;;;;;;5038514;28;20178;-67
2022/09/30 13:03:58;;;;;;;23.40;5.50;;;15.00;75.30;;;;;;5044509;28;20188;-68
2022/09/30 13:06:53;;;;;;;33.83;4.53;;;15.00;74.90;;;;;;5046366;28;20182;-67
2022/09/30 13:09:29;;;;;;;25.77;4.70;;;15.00;74.20;;;;;;5036486;28;20249;-67
2022/09/30 13:11:59;;;;;;;29.30;4.10;;;15.10;73.70;;;;;;5052217;28;20523;-68
2022/09/30 13:14:43;;;;;;;20.57;4.27;;;15.10;73.20;;;;;;5053079;28;20697;-67
2022/09/30 13:17:10;;;;;;;20.53;4.40;;;15.10;72.60;;;;;;5052109;28;20668;-67
2022/09/30 13:19:50;;;;;;;17.23;4.03;;;15.10;72.50;;;;;;5052230;28;20191;-67
2022/09/30 13:22:20;;;;;;;18.10;4.00;;;15.10;72.40;;;;;;5051022;28;20718;-68
2022/09/30 13:25:03;;;;;;;19.33;3.80;;;15.10;72.50;;;;;;5051915;28;20185;-67
2022/09/30 13:28:09;;;;;;;21.53;4.97;;;15.00;73.30;;;;;;5051993;28;20715;-67